Time;durP1;ratioP1;P1;durP2;ratioP2;P2;SDS_P1;SDS_P2;PMS_P1;PMS_P2;Temp;Humidity;BMP_temperature;BMP_pressure;BME280_temperature;BME280_humidity;BME280_pressure;Samples;Min_cycle;Max_cycle;Signal;HPM_P1;HPM_P2
2022/05/26 00:00:01;;;;;;;8.43;2.45;;;;;;;-149.78;100.00;50180.03;5134589;27;20055;-70
2022/05/26 00:02:27;;;;;;;4.93;1.63;;;;;;;-149.78;100.00;50189.81;5114615;27;20449;-71
2022/05/26 00:04:52;;;;;;;3.50;1.60;;;;;;;-149.78;100.00;50166.34;5116469;27;20059;-70
2022/05/26 00:07:18;;;;;;;6.82;1.75;;;;;;;-149.78;100.00;50189.81;5130837;27;20058;-70
2022/05/26 00:09:45;;;;;;;5.43;1.63;;;;;;;-149.78;100.00;50154.63;5134146;27;20027;-71
2022/05/26 00:12:11;;;;;;;7.32;1.73;;;;;;;-149.78;100.00;50182.00;5116154;27;20092;-71
2022/05/26 00:14:39;;;;;;;6.80;1.65;;;;;;;-149.78;100.00;50154.63;5134356;27;20428;-70
2022/05/26 00:17:05;;;;;;;2.80;1.40;;;;;;;-149.78;100.00;50135.06;5134468;27;20426;-70
2022/05/26 00:19:32;;;;;;;6.20;1.40;;;;;;;-149.78;100.00;50162.44;5115970;28;20031;-70
2022/05/26 00:21:58;;;;;;;7.05;2.50;;;;;;;-149.78;100.00;50182.00;5134308;27;20133;-70
2022/05/26 00:24:24;;;;;;;7.32;1.60;;;;;;;-149.78;100.00;50166.34;5134347;27;20466;-70
2022/05/26 00:26:49;;;;;;;4.50;1.60;;;;;;;-149.78;100.00;50170.25;5134146;27;20074;-70
2022/05/26 00:29:15;;;;;;;7.75;1.80;;;;;;;-149.78;100.00;50174.19;5098760;28;20027;-70
2022/05/26 00:31:41;;;;;;;7.47;1.75;;;;;;;-149.78;100.00;50174.19;5115698;28;20432;-70
2022/05/26 00:34:07;;;;;;;6.18;1.60;;;;;;;-149.78;100.00;50162.44;5115745;28;20031;-70
2022/05/26 00:36:38;;;;;;;5.40;1.23;;;;;;;-149.78;100.00;50187.88;5133981;28;20031;-70
2022/05/26 00:39:09;;;;;;;5.88;1.52;;;;;;;-149.78;100.00;50189.81;5134051;28;20039;-70
2022/05/26 00:41:39;;;;;;;3.57;1.43;;;;;;;-149.78;100.00;50189.81;5134001;28;20117;-70
2022/05/26 00:44:05;;;;;;;5.45;1.30;;;;;;;-149.78;100.00;50236.75;5133922;28;20095;-70
2022/05/26 00:46:54;;;;;;;7.95;1.60;;;;;;;-149.78;100.00;50178.09;5098843;28;20035;-70
2022/05/26 00:49:35;;;;;;;5.30;1.50;;;;;;;-149.78;100.00;50170.25;5115599;28;20498;-70
2022/05/26 00:52:02;;;;;;;4.65;1.48;;;;;;;-149.78;100.00;50180.03;5114645;28;20393;-70
2022/05/26 00:54:29;;;;;;;5.97;1.23;;;;;;;-149.78;100.00;50162.44;5133132;28;20062;-70
2022/05/26 00:57:03;;;;;;;4.75;1.30;;;;;;;-149.78;100.00;50166.34;5133283;28;20084;-70
2022/05/26 01:00:06;;;;;;;5.53;1.60;;;;;;;-149.78;100.00;50199.59;5134000;28;20032;-70
2022/05/26 01:02:36;;;;;;;;;;;;;;;-149.78;100.00;50150.72;5087384;28;20087;-70
2022/05/26 01:05:27;;;;;;;4.32;1.20;;;;;;;-149.78;100.00;50185.91;5115590;28;19918;-70
2022/05/26 01:07:55;;;;;;;3.50;1.42;;;;;;;-149.78;100.00;50197.66;5109714;27;20042;-70
2022/05/26 01:10:20;;;;;;;3.67;1.35;;;;;;;-149.78;100.00;50207.44;5119215;27;20031;-70
2022/05/26 01:12:46;;;;;;;6.28;1.50;;;;;;;-149.78;100.00;50189.81;5119581;27;20114;-70
2022/05/26 01:15:16;;;;;;;5.65;1.50;;;;;;;-149.78;100.00;50213.28;5100842;27;20031;-70
2022/05/26 01:17:48;;;;;;;8.18;1.60;;;;;;;-149.78;100.00;50189.81;5136556;27;20031;-70
2022/05/26 01:20:33;;;;;;;6.43;1.40;;;;;;;-149.78;100.00;50187.88;5119228;27;20031;-70
2022/05/26 01:23:36;;;;;;;7.07;1.50;;;;;;;-149.78;100.00;50174.19;5119466;27;20030;-70
2022/05/26 01:26:41;;;;;;;5.72;1.60;;;;;;;-149.78;100.00;50221.13;5118539;27;20027;-69
2022/05/26 01:29:19;;;;;;;3.67;1.58;;;;;;;-149.78;100.00;50170.25;5137313;27;20050;-70
2022/05/26 01:31:50;;;;;;;3.10;1.25;;;;;;;-149.78;100.00;50162.44;5137600;27;20058;-70
2022/05/26 01:34:58;;;;;;;2.90;1.60;;;;;;;-149.78;100.00;50156.56;5137006;27;20382;-70
2022/05/26 01:37:46;;;;;;;9.05;1.40;;;;;;;-149.78;100.00;50213.28;5101633;27;20034;-70
2022/05/26 01:40:18;;;;;;;12.57;1.95;;;;;;;-149.78;100.00;50189.81;5137151;27;20035;-70
2022/05/26 01:42:48;;;;;;;;;;;;;;;-149.78;100.00;50201.56;5137441;27;20140;-70
2022/05/26 01:45:20;;;;;;;13.13;2.90;;;;;;;-149.78;100.00;50205.47;5136960;27;19911;-70
2022/05/26 01:47:57;;;;;;;5.35;1.35;;;;;;;-149.78;100.00;50185.91;5137057;27;20027;-70
2022/05/26 01:50:41;;;;;;;4.50;1.30;;;;;;;-149.78;100.00;50185.91;5137025;27;20131;-70
2022/05/26 01:53:32;;;;;;;6.95;1.23;;;;;;;-149.78;100.00;50183.97;5118643;27;20038;-70
2022/05/26 01:56:05;;;;;;;6.38;1.35;;;;;;;-149.78;100.00;50209.38;5118690;27;20115;-70
2022/05/26 01:58:35;;;;;;;5.05;1.27;;;;;;;-149.78;100.00;50182.00;5136948;27;20108;-70
2022/05/26 02:01:06;;;;;;;3.60;1.30;;;;;;;-149.78;100.00;50174.19;5136607;27;20119;-70
2022/05/26 02:03:34;;;;;;;5.55;1.00;;;;;;;-149.78;100.00;50189.81;5118444;27;20035;-70
2022/05/26 02:06:19;;;;;;;5.88;1.92;;;;;;;-149.78;100.00;50162.44;5136742;27;20037;-70
2022/05/26 02:09:11;;;;;;;5.55;1.42;;;;;;;-149.78;100.00;50197.66;5136743;27;20036;-70
2022/05/26 02:11:40;;;;;;;;;;;;;;;-149.78;100.00;50197.66;5118872;27;20031;-70
2022/05/26 02:14:13;;;;;;;7.50;1.60;;;;;;;-149.78;100.00;50221.13;5118321;27;19911;-71
2022/05/26 02:16:46;;;;;;;5.30;1.77;;;;;;;-149.78;100.00;50217.19;5136581;27;20027;-71
2022/05/26 02:19:19;;;;;;;5.43;1.30;;;;;;;-149.78;100.00;50236.75;5118115;27;20045;-70
2022/05/26 02:22:04;;;;;;;6.05;1.20;;;;;;;-149.78;100.00;50183.97;5136617;27;20038;-71
2022/05/26 02:25:14;;;;;;;5.72;1.10;;;;;;;-149.78;100.00;50197.66;5136452;27;20035;-70
2022/05/26 02:27:40;;;;;;;10.05;1.40;;;;;;;-149.78;100.00;50205.47;5118036;27;20042;-71
2022/05/26 02:30:07;;;;;;;8.57;1.88;;;;;;;-149.78;100.00;50189.81;5100900;27;20366;-70
2022/05/26 02:32:46;;;;;;;5.07;1.63;;;;;;;-149.78;100.00;50217.19;5118033;27;20390;-70
2022/05/26 02:35:16;;;;;;;6.85;1.20;;;;;;;-149.78;100.00;50199.59;5117947;27;20030;-70
2022/05/26 02:37:44;;;;;;;3.65;1.30;;;;;;;-149.78;100.00;50201.56;5136255;27;20358;-70
2022/05/26 02:40:10;;;;;;;3.90;1.02;;;;;;;-149.78;100.00;50174.19;5135976;27;20027;-70
2022/05/26 02:42:49;;;;;;;7.30;1.50;;;;;;;-149.78;100.00;50166.34;5117957;27;20070;-71
2022/05/26 02:45:30;;;;;;;3.88;1.45;;;;;;;-149.78;100.00;50205.47;5117821;27;20033;-70
2022/05/26 02:48:09;;;;;;;5.93;1.20;;;;;;;-149.78;100.00;50201.56;5135967;27;20038;-71
2022/05/26 02:50:42;;;;;;;3.83;1.45;;;;;;;-149.78;100.00;50209.38;5135148;27;20030;-70
2022/05/26 02:53:28;;;;;;;4.13;1.33;;;;;;;-149.78;100.00;50185.91;5134836;27;20035;-70
2022/05/26 02:56:16;;;;;;;6.88;1.40;;;;;;;-149.78;100.00;50248.50;5069272;27;20046;-70
2022/05/26 02:59:02;;;;;;;5.18;1.23;;;;;;;-149.78;100.00;50230.88;5117549;27;20034;-70
2022/05/26 03:01:52;;;;;;;4.43;1.35;;;;;;;-149.78;100.00;50213.28;5135598;27;20047;-71
2022/05/26 03:04:25;;;;;;;5.65;1.17;;;;;;;-149.78;100.00;50213.28;5115065;28;20395;-71
2022/05/26 03:06:59;;;;;;;4.13;1.50;;;;;;;-149.78;100.00;50183.97;5096672;28;20024;-71
2022/05/26 03:09:27;;;;;;;5.05;1.40;;;;;;;-149.78;100.00;50225.03;5128714;27;20022;-70
2022/05/26 03:11:55;;;;;;;3.83;1.17;;;;;;;-149.78;100.00;50217.19;5117309;27;20035;-71
2022/05/26 03:14:22;;;;;;;9.02;1.50;;;;;;;-149.78;100.00;50225.03;5135507;27;20050;-70
2022/05/26 03:16:48;;;;;;;4.15;1.17;;;;;;;-149.78;100.00;50223.06;5100022;27;20035;-70
2022/05/26 03:19:15;;;;;;;6.65;1.33;;;;;;;-149.78;100.00;50209.38;5117026;27;20055;-70
2022/05/26 03:21:41;;;;;;;8.90;1.80;;;;;;;-149.78;100.00;50213.28;5135448;27;20047;-70
2022/05/26 03:24:10;;;;;;;5.18;1.42;;;;;;;-149.78;100.00;50228.94;5135139;27;20027;-71
2022/05/26 03:26:36;;;;;;;5.75;1.40;;;;;;;-149.78;100.00;50226.97;5112020;28;20505;-71
2022/05/26 03:29:03;;;;;;;8.23;1.50;;;;;;;-149.78;100.00;50183.97;5114638;28;20024;-70
2022/05/26 03:31:30;;;;;;;11.82;1.67;;;;;;;-149.78;100.00;50244.59;5096135;28;20031;-71
2022/05/26 03:42:11;;;;;;;4.82;1.27;;;;;;;-149.78;100.00;50185.91;5114506;28;20036;-71
2022/05/26 03:44:38;;;;;;;6.18;1.52;;;;;;;-149.78;100.00;50238.72;5096294;28;20035;-71
2022/05/26 03:47:04;;;;;;;6.13;1.20;;;;;;;-149.78;100.00;50256.31;5122551;27;20110;-70
2022/05/26 03:49:30;;;;;;;2.33;1.30;;;;;;;-149.78;100.00;50205.47;5134004;27;20031;-71
2022/05/26 03:51:57;;;;;;;4.25;1.30;;;;;;;-149.78;100.00;50230.88;5116285;27;20031;-71
2022/05/26 03:54:24;;;;;;;7.75;1.42;;;;;;;-149.78;100.00;50221.13;5116324;27;20061;-71
2022/05/26 03:56:50;;;;;;;7.40;1.38;;;;;;;-149.78;100.00;50228.94;5134129;27;20042;-71
2022/05/26 03:59:15;;;;;;;5.35;1.23;;;;;;;-149.78;100.00;50174.19;5097322;27;20035;-70
2022/05/26 04:01:41;;;;;;;3.80;1.25;;;;;;;-149.78;100.00;50197.66;5098802;27;20108;-70
2022/05/26 04:04:07;;;;;;;2.40;1.25;;;;;;;-149.78;100.00;50213.28;5098893;27;20114;-70
2022/05/26 04:06:32;;;;;;;5.13;1.70;;;;;;;-149.78;100.00;50201.56;5134320;27;20031;-70
2022/05/26 04:08:59;;;;;;;9.27;1.55;;;;;;;-149.78;100.00;50217.19;5115703;27;20039;-70
2022/05/26 04:11:25;;;;;;;7.28;2.15;;;;;;;-149.78;100.00;50228.94;5116209;27;20031;-71
2022/05/26 04:13:52;;;;;;;4.80;1.67;;;;;;;-149.78;100.00;50217.19;5133438;27;20031;-71
2022/05/26 04:16:19;;;;;;;4.28;1.27;;;;;;;-149.78;100.00;50197.66;5126243;27;20038;-70
2022/05/26 04:18:45;;;;;;;5.72;1.30;;;;;;;-149.78;100.00;50209.38;5134253;27;20055;-71
2022/05/26 04:21:12;;;;;;;4.53;1.20;;;;;;;-149.78;100.00;50230.88;5134326;27;20066;-70
2022/05/26 04:23:38;;;;;;;12.30;2.15;;;;;;;-149.78;100.00;50213.28;5115979;27;20027;-70
2022/05/26 04:26:06;;;;;;;5.35;1.25;;;;;;;-149.78;100.00;50240.66;5134323;27;20038;-71
2022/05/26 04:28:32;;;;;;;5.13;1.23;;;;;;;-149.78;100.00;50207.44;5098948;28;20035;-70
2022/05/26 04:30:58;;;;;;;6.85;1.23;;;;;;;-149.78;100.00;50236.75;5115940;28;20031;-70
2022/05/26 04:33:24;;;;;;;8.27;1.30;;;;;;;-149.78;100.00;50236.75;5134281;27;20158;-71
2022/05/26 04:35:51;;;;;;;4.82;1.20;;;;;;;-149.78;100.00;50197.66;5110309;28;20019;-71
2022/05/26 04:38:17;;;;;;;5.03;1.70;;;;;;;-149.78;100.00;50185.91;5117194;28;20031;-71
2022/05/26 04:40:44;;;;;;;4.20;1.27;;;;;;;-149.78;100.00;50207.44;5100676;27;20043;-71
2022/05/26 04:43:10;;;;;;;4.55;1.20;;;;;;;-149.78;100.00;50213.28;5118689;27;20031;-71
2022/05/26 04:45:36;;;;;;;4.50;1.27;;;;;;;-149.78;100.00;50199.59;5086524;28;20463;-71
2022/05/26 04:48:02;;;;;;;4.63;1.50;;;;;;;-149.78;100.00;50221.13;5117748;28;20027;-71
2022/05/26 04:50:29;;;;;;;4.15;1.13;;;;;;;-149.78;100.00;50205.47;5082355;27;20399;-70
2022/05/26 04:52:54;;;;;;;5.57;1.20;;;;;;;-149.78;100.00;50205.47;5116572;27;20035;-70
2022/05/26 04:55:20;;;;;;;4.80;1.08;;;;;;;-149.78;100.00;50205.47;5123501;27;20035;-71
2022/05/26 04:57:45;;;;;;;3.78;1.27;;;;;;;-149.78;100.00;50225.03;5108056;27;20043;-71
2022/05/26 05:00:16;;;;;;;3.25;1.23;;;;;;;-149.78;100.00;50209.38;5119557;27;20039;-71
2022/05/26 05:02:42;;;;;;;7.32;1.30;;;;;;;-149.78;100.00;50215.25;5111358;28;20131;-71
2022/05/26 05:05:09;;;;;;;1.75;1.02;;;;;;;-149.78;100.00;50213.28;5113884;28;20035;-71
2022/05/26 05:07:34;;;;;;;8.13;1.50;;;;;;;-149.78;100.00;50199.59;5109997;28;20043;-71
2022/05/26 05:10:01;;;;;;;1.63;1.20;;;;;;;-149.78;100.00;50240.66;5117443;27;20038;-71
2022/05/26 05:12:28;;;;;;;5.47;1.35;;;;;;;-149.78;100.00;50182.00;5117225;28;20031;-71
2022/05/26 05:14:55;;;;;;;4.18;2.53;;;;;;;-149.78;100.00;50225.03;5100315;28;20433;-71
2022/05/26 05:17:24;;;;;;;2.60;1.13;;;;;;;-149.78;100.00;50213.28;5103752;28;20047;-70
2022/05/26 05:19:50;;;;;;;3.88;1.30;;;;;;;-149.78;100.00;50225.03;5096975;28;20020;-71
2022/05/26 05:22:23;;;;;;;6.38;1.40;;;;;;;-149.78;100.00;50205.47;5094708;28;20028;-72
2022/05/26 05:25:01;;;;;;;3.70;1.20;;;;;;;-149.78;100.00;50189.81;5102424;28;20054;-71
2022/05/26 05:27:44;;;;;;;1.60;1.10;;;;;;;-149.78;100.00;50236.75;5107426;28;20040;-71
2022/05/26 05:30:13;;;;;;;;;;;;;;;-149.78;100.00;50248.50;5117089;28;20024;-71
2022/05/26 05:32:45;;;;;;;4.50;1.20;;;;;;;-149.78;100.00;50187.88;5101067;28;19912;-71
2022/05/26 05:35:17;;;;;;;5.40;1.55;;;;;;;-149.78;100.00;50189.81;5103808;28;20482;-72
2022/05/26 05:37:43;;;;;;;2.95;1.30;;;;;;;-149.78;100.00;50205.47;5106573;28;20027;-71
2022/05/26 05:40:12;;;;;;;5.35;1.30;;;;;;;-149.78;100.00;50213.28;5080017;28;20668;-71
2022/05/26 05:42:39;;;;;;;3.15;1.00;;;;;;;-149.78;100.00;50205.47;5109358;28;20031;-71
2022/05/26 05:45:06;;;;;;;4.53;1.35;;;;;;;-149.78;100.00;50174.19;5096249;28;20032;-71
2022/05/26 05:47:32;;;;;;;6.47;1.10;;;;;;;-149.78;100.00;50166.34;5094647;28;20036;-71
2022/05/26 05:49:57;;;;;;;5.60;1.40;;;;;;;-149.78;100.00;50166.34;5094701;28;20570;-71
2022/05/26 05:52:23;;;;;;;8.43;1.40;;;;;;;-149.78;100.00;50185.91;5077781;28;20031;-72
2022/05/26 05:54:51;;;;;;;4.10;1.30;;;;;;;-149.78;100.00;50217.19;5108182;28;20371;-71
2022/05/26 05:57:17;;;;;;;2.42;1.13;;;;;;;-149.78;100.00;50180.03;5100691;28;20020;-71
2022/05/26 05:59:42;;;;;;;3.25;1.30;;;;;;;-149.78;100.00;50197.66;5099835;28;20406;-71
2022/05/26 06:02:08;;;;;;;6.07;1.20;;;;;;;-149.78;100.00;50176.13;5081858;28;20051;-70
2022/05/26 06:04:41;;;;;;;3.42;1.30;;;;;;;-149.78;100.00;50189.81;5090880;28;20035;-70
2022/05/26 06:07:15;;;;;;;2.97;1.30;;;;;;;-149.78;100.00;50174.19;5085030;28;20062;-71
2022/05/26 06:09:42;;;;;;;3.55;1.02;;;;;;;-149.78;100.00;50176.13;5097587;28;20031;-70
2022/05/26 06:12:09;;;;;;;3.28;1.33;;;;;;;-149.78;100.00;50154.63;5092188;28;20398;-70
2022/05/26 06:14:34;;;;;;;5.35;1.33;;;;;;;-149.78;100.00;50209.38;5108134;28;20568;-70
2022/05/26 06:17:00;;;;;;;3.00;1.08;;;;;;;-149.78;100.00;50166.34;5108803;28;20035;-70
2022/05/26 06:19:27;;;;;;;4.63;1.20;;;;;;;-149.78;100.00;50189.81;5081829;28;20044;-71
2022/05/26 06:21:53;;;;;;;6.35;1.30;;;;;;;-149.78;100.00;50185.91;5104804;28;20103;-70
2022/05/26 06:24:23;;;;;;;3.65;1.40;;;;;;;-149.78;100.00;50203.50;5098403;28;20511;-72
2022/05/26 06:26:49;;;;;;;3.63;1.40;;;;;;;-149.78;100.00;50197.66;5096685;28;20028;-71
2022/05/26 06:37:28;;;;;;;8.60;1.75;;;;;;;-149.78;100.00;50197.66;5103759;28;20036;-72
2022/05/26 06:39:55;;;;;;;3.05;2.00;;;;;;;-149.78;100.00;50187.88;5088297;28;20032;-71
2022/05/26 06:42:24;;;;;;;6.72;2.00;;;;;;;-149.78;100.00;50242.63;5107937;28;20028;-71
2022/05/26 06:44:50;;;;;;;5.80;1.65;;;;;;;-149.78;100.00;50205.47;5098553;28;20035;-72
2022/05/26 06:47:20;;;;;;;4.18;1.70;;;;;;;-149.78;100.00;50182.00;5098230;28;20071;-71
2022/05/26 06:49:46;;;;;;;6.80;2.85;;;;;;;-149.78;100.00;50189.81;5099862;28;20488;-70
2022/05/26 06:52:14;;;;;;;3.63;1.60;;;;;;;-149.78;100.00;50182.00;5107746;28;20035;-70
2022/05/26 06:54:43;;;;;;;30.00;4.15;;;;;;;-149.78;100.00;50205.47;5098011;28;20525;-72
2022/05/26 06:57:10;;;;;;;5.93;2.05;;;;;;;-149.78;100.00;50213.28;5097969;28;20043;-73
2022/05/26 06:59:37;;;;;;;5.95;2.42;;;;;;;-149.78;100.00;50189.81;5101832;28;20087;-73
2022/05/26 07:02:05;;;;;;;5.78;1.80;;;;;;;-149.78;100.00;50209.38;5098436;28;20040;-71
2022/05/26 07:04:31;;;;;;;4.15;2.10;;;;;;;-149.78;100.00;50189.81;5112511;28;20024;-73
2022/05/26 07:06:57;;;;;;;7.63;2.00;;;;;;;-149.78;100.00;50182.00;5091547;28;20032;-73
2022/05/26 07:09:24;;;;;;;9.07;2.00;;;;;;;-149.78;100.00;50154.63;5100019;28;20038;-73
2022/05/26 07:11:49;;;;;;;5.18;1.83;;;;;;;-149.78;100.00;50154.63;5113781;28;20370;-73
2022/05/26 07:14:16;;;;;;;3.65;1.55;;;;;;;-149.78;100.00;50189.81;5104866;28;20036;-73
2022/05/26 07:16:44;;;;;;;5.10;1.58;;;;;;;-149.78;100.00;50183.97;5104221;28;20128;-73
2022/05/26 07:19:15;;;;;;;7.28;1.70;;;;;;;-149.78;100.00;50197.66;5097077;28;20110;-73
2022/05/26 07:21:49;;;;;;;4.00;1.30;;;;;;;-149.78;100.00;50174.19;5093765;28;20383;-74
2022/05/26 07:24:18;;;;;;;9.45;1.88;;;;;;;-149.78;100.00;50217.19;5095880;28;20039;-75
2022/05/26 07:26:44;;;;;;;3.75;1.20;;;;;;;-149.78;100.00;50174.19;5097613;28;20428;-73
2022/05/26 07:29:09;;;;;;;2.80;1.40;;;;;;;-149.78;100.00;50152.66;5096444;28;20039;-73
2022/05/26 07:31:35;;;;;;;3.13;1.50;;;;;;;-149.78;100.00;50225.03;5103654;28;20024;-72
2022/05/26 07:34:02;;;;;;;3.60;1.23;;;;;;;-149.78;100.00;50203.50;5094767;28;20039;-74
2022/05/26 07:42:01;;;;;;;3.88;1.50;;;;;;;-149.78;100.00;50209.38;5095507;28;20035;-72
2022/05/26 07:44:29;;;;;;;7.13;2.13;;;;;;;-149.78;100.00;50178.09;5092814;28;20061;-72
2022/05/26 07:46:56;;;;;;;2.97;1.70;;;;;;;-149.78;100.00;50201.56;5093720;28;20106;-72
2022/05/26 07:49:22;;;;;;;4.07;2.03;;;;;;;-149.78;100.00;50193.72;5092905;28;20020;-72
2022/05/26 07:51:48;;;;;;;4.32;2.05;;;;;;;-149.78;100.00;50213.28;5086750;28;20085;-73
2022/05/26 07:54:13;;;;;;;4.63;1.92;;;;;;;-149.78;100.00;50217.19;5092801;28;20036;-73
2022/05/26 07:56:39;;;;;;;4.68;1.90;;;;;;;-149.78;100.00;50205.47;5104407;28;20467;-73
2022/05/26 07:59:06;;;;;;;3.90;2.00;;;;;;;-149.78;100.00;50201.56;5113455;28;20059;-73
2022/05/26 08:01:32;;;;;;;5.05;2.30;;;;;;;-149.78;100.00;50205.47;5112941;28;20076;-73
2022/05/26 08:03:58;;;;;;;6.63;2.72;;;;;;;-149.78;100.00;50232.84;5077948;28;20155;-73
2022/05/26 08:06:24;;;;;;;6.80;3.20;;;;;;;-149.78;100.00;50226.97;5093664;28;20115;-73
2022/05/26 08:08:51;;;;;;;7.25;2.78;;;;;;;-149.78;100.00;50187.88;5091963;28;20028;-73
2022/05/26 08:11:16;;;;;;;7.78;2.97;;;;;;;-149.78;100.00;50185.91;5093453;28;20042;-73
2022/05/26 08:13:42;;;;;;;8.48;3.30;;;;;;;-149.78;100.00;50203.50;5093557;28;20036;-73
2022/05/26 08:16:09;;;;;;;7.15;3.25;;;;;;;-149.78;100.00;50213.28;5092154;28;20036;-73
2022/05/26 08:18:35;;;;;;;8.30;3.28;;;;;;;-149.78;100.00;50244.59;5091978;28;20093;-73
2022/05/26 08:21:12;;;;;;;10.55;3.17;;;;;;;-149.78;100.00;50209.38;5092346;28;20032;-74
2022/05/26 08:23:38;;;;;;;5.93;2.95;;;;;;;-149.78;100.00;50213.28;5092364;28;20076;-74
2022/05/26 08:26:04;;;;;;;3.97;2.40;;;;;;;-149.78;100.00;50209.38;5075433;28;20115;-73
2022/05/26 08:28:31;;;;;;;6.30;2.53;;;;;;;-149.78;100.00;50197.66;5075327;28;20127;-73
2022/05/26 08:30:59;;;;;;;5.45;2.95;;;;;;;-149.78;100.00;50197.66;5093170;28;20530;-73
2022/05/26 08:33:29;;;;;;;5.15;2.47;;;;;;;-149.78;100.00;50185.91;5093349;28;20032;-73
2022/05/26 08:36:05;;;;;;;4.65;1.92;;;;;;;-149.78;100.00;50174.19;5093154;28;20477;-73
2022/05/26 08:38:31;;;;;;;3.58;2.10;;;;;;;-149.78;100.00;50168.31;5091031;28;20036;-73
2022/05/26 08:40:57;;;;;;;6.35;1.90;;;;;;;-149.78;100.00;50182.00;5082381;28;20029;-72
2022/05/26 08:43:33;;;;;;;6.47;1.70;;;;;;;-149.78;100.00;50183.97;5076333;28;20061;-73
2022/05/26 08:46:03;;;;;;;2.53;1.55;;;;;;;-149.78;100.00;50185.91;5086028;28;20032;-73
2022/05/26 08:48:50;;;;;;;2.85;1.45;;;;;;;-149.78;100.00;50197.66;5085155;28;20028;-72
2022/05/26 08:51:47;;;;;;;2.83;1.30;;;;;;;-149.78;100.00;50193.72;5091994;28;20031;-70
2022/05/26 08:54:51;;;;;;;3.25;1.30;;;;;;;-149.78;100.00;50185.91;5093148;28;20067;-70
2022/05/26 08:57:42;;;;;;;1.75;1.23;;;;;;;-149.78;100.00;50201.56;5071242;28;20033;-71
2022/05/26 09:00:13;;;;;;;1.35;0.75;;;;;;;-149.78;100.00;50189.81;5081010;28;20047;-71
2022/05/26 09:02:39;;;;;;;1.50;0.73;;;;;;;-149.78;100.00;50187.88;5106302;28;20073;-70
2022/05/26 09:05:17;;;;;;;1.85;0.77;;;;;;;-149.78;100.00;50146.81;5133852;28;20042;-70
2022/05/26 09:13:43;;;;;;;1.92;0.98;;;;;;;-149.78;100.00;50195.69;5113133;28;20081;-70
2022/05/26 09:16:10;;;;;;;1.20;0.80;;;;;;;-149.78;100.00;50172.22;5111679;28;20135;-70
2022/05/26 09:18:37;;;;;;;1.10;0.82;;;;;;;-149.78;100.00;50185.91;5115208;28;20114;-71
2022/05/26 09:21:25;;;;;;;2.83;0.90;;;;;;;-149.78;100.00;50174.19;5107291;28;20038;-70
2022/05/26 09:23:52;;;;;;;2.75;0.80;;;;;;;-149.78;100.00;50158.53;5116041;28;20035;-70
2022/05/26 09:26:22;;;;;;;2.70;1.10;;;;;;;-149.78;100.00;50168.31;5115227;28;20031;-70
2022/05/26 09:28:53;;;;;;;4.90;1.08;;;;;;;-149.78;100.00;50162.44;5117056;27;20038;-71
2022/05/26 09:31:48;;;;;;;1.75;0.88;;;;;;;-149.78;100.00;50170.25;5137250;27;20494;-71
2022/05/26 09:34:14;;;;;;;1.75;0.70;;;;;;;-149.78;100.00;50174.19;5095050;28;20097;-70
2022/05/26 09:37:05;;;;;;;0.63;0.60;;;;;;;-149.78;100.00;50162.44;5103408;27;20458;-71
2022/05/26 09:39:42;;;;;;;1.90;1.08;;;;;;;-149.78;100.00;50156.56;5119038;27;20024;-71
2022/05/26 09:42:16;;;;;;;2.05;0.70;;;;;;;-149.78;100.00;50135.06;5116477;28;20023;-71
2022/05/26 09:45:12;;;;;;;2.33;0.88;;;;;;;-149.78;100.00;50150.72;5116456;28;20065;-71
2022/05/26 09:47:53;;;;;;;1.15;0.63;;;;;;;-149.78;100.00;50174.19;5097783;28;20514;-70
2022/05/26 09:50:31;;;;;;;0.95;0.65;;;;;;;-149.78;100.00;50131.16;5120619;27;20020;-71
2022/05/26 09:52:56;;;;;;;0.60;0.60;;;;;;;-149.78;100.00;50123.34;5136746;27;20038;-71
2022/05/26 09:55:27;;;;;;;1.48;0.73;;;;;;;-149.78;100.00;50164.41;5136903;27;20031;-71
2022/05/26 09:58:29;;;;;;;0.52;0.52;;;;;;;-149.78;100.00;50129.19;5136713;27;20114;-71
2022/05/26 10:00:58;;;;;;;2.03;0.75;;;;;;;-149.78;100.00;50095.94;5105258;27;20046;-70
2022/05/26 10:03:36;;;;;;;2.42;0.70;;;;;;;-149.78;100.00;50138.97;5117447;27;20035;-70
2022/05/26 10:06:20;;;;;;;3.70;0.73;;;;;;;-149.78;100.00;50135.06;5097419;28;20370;-70
2022/05/26 10:08:55;;;;;;;1.83;0.80;;;;;;;-149.78;100.00;50148.75;5097671;28;20391;-70
2022/05/26 10:11:32;;;;;;;2.80;0.82;;;;;;;-149.78;100.00;50054.88;5097485;28;20379;-71
2022/05/26 10:14:13;;;;;;;1.27;0.95;;;;;;;-149.78;100.00;50088.13;5097690;28;20436;-71
2022/05/26 10:16:53;;;;;;;1.92;1.20;;;;;;;-149.78;100.00;50092.03;5121069;27;20030;-73
2022/05/26 10:19:30;;;;;;;2.15;0.90;;;;;;;-149.78;100.00;50054.88;5135964;27;20031;-73
2022/05/26 10:22:08;;;;;;;3.92;1.38;;;;;;;-149.78;100.00;50084.22;5136578;27;20031;-74
2022/05/26 10:25:18;;;;;;;2.40;0.95;;;;;;;-149.78;100.00;50050.97;5126991;27;20031;-73
2022/05/26 10:27:57;;;;;;;3.95;1.33;;;;;;;-149.78;100.00;50013.81;5031834;28;20519;-73
2022/05/26 10:30:53;;;;;;;3.05;1.10;;;;;;;-149.78;100.00;49990.34;5114430;27;20045;-73
2022/05/26 10:33:34;;;;;;;4.18;1.02;;;;;;;-149.78;100.00;50009.91;5096191;28;20039;-73
2022/05/26 10:36:18;;;;;;;1.40;0.93;;;;;;;-149.78;100.00;50052.94;5115525;28;20463;-73
2022/05/26 10:39:13;;;;;;;2.35;0.80;;;;;;;-149.78;100.00;50045.09;5115661;28;20422;-73
2022/05/26 10:41:48;;;;;;;1.23;0.80;;;;;;;-149.78;100.00;50060.75;5097339;28;20031;-73
2022/05/26 10:44:34;;;;;;;1.88;0.90;;;;;;;-149.78;100.00;50033.38;5115353;28;20039;-73
2022/05/26 10:47:11;;;;;;;6.90;1.25;;;;;;;-149.78;100.00;50041.19;5115215;27;20036;-74
2022/05/26 10:49:50;;;;;;;1.27;0.90;;;;;;;-149.78;100.00;50072.50;5115040;28;20383;-76
2022/05/26 10:52:25;;;;;;;2.85;1.00;;;;;;;-149.78;100.00;50060.75;5114145;28;20040;-73
2022/05/26 10:54:57;;;;;;;2.58;1.05;;;;;;;-149.78;100.00;50072.50;5134241;27;20034;-73
2022/05/26 10:57:33;;;;;;;1.88;1.05;;;;;;;-149.78;100.00;50084.22;5122054;27;20028;-73
2022/05/26 11:00:04;;;;;;;4.50;1.17;;;;;;;-149.78;100.00;50099.88;5121618;27;20039;-73
2022/05/26 11:02:51;;;;;;;2.85;1.20;;;;;;;-149.78;100.00;50058.78;5104552;28;20092;-73
2022/05/26 11:05:42;;;;;;;4.57;1.38;;;;;;;-149.78;100.00;50111.59;5096151;28;20047;-73
2022/05/26 11:08:09;;;;;;;4.57;1.40;;;;;;;-149.78;100.00;50058.78;5106085;28;20031;-73
2022/05/26 11:10:53;;;;;;;3.17;1.35;;;;;;;-149.78;100.00;50072.50;5119720;27;20466;-73
2022/05/26 11:13:44;;;;;;;2.58;1.35;;;;;;;-149.78;100.00;50107.69;5109763;28;20081;-73
2022/05/26 11:19:32;;;;;;;6.03;1.60;;;;;;;-149.78;100.00;50103.78;5111293;27;20042;-73
2022/05/26 11:22:00;;;;;;;1.88;1.50;;;;;;;-149.78;100.00;50097.91;5134967;27;20075;-72
2022/05/26 11:24:26;;;;;;;4.35;1.40;;;;;;;-149.78;100.00;50088.13;5116994;27;20470;-72
2022/05/26 11:27:15;;;;;;;5.45;1.55;;;;;;;-149.78;100.00;50060.75;5113642;27;20051;-73
2022/05/26 11:29:47;;;;;;;3.25;1.60;;;;;;;-149.78;100.00;50060.75;5121165;27;20031;-72
2022/05/26 11:38:13;;;;;;;6.90;1.88;;;;;;;-149.78;100.00;50084.22;5119203;27;20055;-73
2022/05/26 11:40:49;;;;;;;6.70;1.90;;;;;;;-149.78;100.00;50052.94;5122034;27;20130;-73
2022/05/26 11:43:25;;;;;;;6.05;1.95;;;;;;;-149.78;100.00;50035.34;5097939;28;20135;-73
2022/05/26 11:45:52;;;;;;;5.13;1.98;;;;;;;-149.78;100.00;50025.56;5096035;28;20096;-72
2022/05/26 11:48:30;;;;;;;5.43;1.85;;;;;;;-149.78;100.00;49998.19;5096057;28;20027;-72
2022/05/26 11:51:12;;;;;;;4.75;1.73;;;;;;;-149.78;100.00;50056.84;5113918;28;20440;-72
2022/05/26 11:53:44;;;;;;;6.10;2.05;;;;;;;-149.78;100.00;50047.06;5113915;28;20035;-72
2022/05/26 11:56:28;;;;;;;5.45;2.85;;;;;;;-149.78;100.00;50006.00;5120414;27;20032;-72
2022/05/26 11:59:32;;;;;;;4.53;1.90;;;;;;;-149.78;100.00;50043.16;5120971;27;20383;-72
2022/05/26 12:02:01;;;;;;;4.10;1.60;;;;;;;-149.78;100.00;50006.00;5102419;28;20039;-72
2022/05/26 12:04:30;;;;;;;8.57;1.70;;;;;;;-149.78;100.00;50070.53;5100195;28;20523;-74
2022/05/26 12:07:01;;;;;;;16.50;3.67;;;;;;;-149.78;100.00;50045.09;5128122;27;20034;-72
2022/05/26 12:09:48;;;;;;;6.40;1.70;;;;;;;-149.78;100.00;50037.28;5134466;27;20023;-72